sensor_id;sensor_type;location;lat;lon;timestamp;P1;durP1;ratioP1;P2;durP2;ratioP2
12567;SDS011;6349;50.904;6.136;2023-06-24T00:00:51;4.95;;;4.55;;
12567;SDS011;6349;50.904;6.136;2023-06-24T00:02:52;4.53;;;4.13;;
12567;SDS011;6349;50.904;6.136;2023-06-24T00:04:53;4.93;;;4.53;;
12567;SDS011;6349;50.904;6.136;2023-06-24T00:06:54;4.82;;;4.43;;
12567;SDS011;6349;50.904;6.136;2023-06-24T00:08:56;5.35;;;4.50;;
12567;SDS011;6349;50.904;6.136;2023-06-24T00:11:01;4.38;;;3.97;;
12567;SDS011;6349;50.904;6.136;2023-06-24T00:13:02;6.00;;;4.93;;
12567;SDS011;6349;50.904;6.136;2023-06-24T00:15:03;4.90;;;4.50;;
12567;SDS011;6349;50.904;6.136;2023-06-24T00:17:04;4.88;;;4.38;;
12567;SDS011;6349;50.904;6.136;2023-06-24T00:19:07;4.63;;;4.20;;
12567;SDS011;6349;50.904;6.136;2023-06-24T00:21:08;4.80;;;4.25;;
12567;SDS011;6349;50.904;6.136;2023-06-24T00:23:08;5.10;;;4.57;;
12567;SDS011;6349;50.904;6.136;2023-06-24T00:25:10;4.93;;;4.50;;
12567;SDS011;6349;50.904;6.136;2023-06-24T00:27:12;4.65;;;4.25;;
12567;SDS011;6349;50.904;6.136;2023-06-24T00:29:14;5.05;;;4.55;;
12567;SDS011;6349;50.904;6.136;2023-06-24T00:31:16;4.70;;;4.30;;
12567;SDS011;6349;50.904;6.136;2023-06-24T00:33:19;4.60;;;4.25;;
12567;SDS011;6349;50.904;6.136;2023-06-24T00:35:22;4.88;;;4.47;;
12567;SDS011;6349;50.904;6.136;2023-06-24T00:37:24;4.60;;;4.20;;
12567;SDS011;6349;50.904;6.136;2023-06-24T00:39:25;4.60;;;4.20;;
12567;SDS011;6349;50.904;6.136;2023-06-24T00:41:27;4.68;;;4.22;;
12567;SDS011;6349;50.904;6.136;2023-06-24T00:43:29;4.70;;;4.22;;
12567;SDS011;6349;50.904;6.136;2023-06-24T00:45:31;4.35;;;3.95;;
12567;SDS011;6349;50.904;6.136;2023-06-24T00:47:32;4.65;;;4.20;;
12567;SDS011;6349;50.904;6.136;2023-06-24T00:49:33;5.32;;;4.82;;
12567;SDS011;6349;50.904;6.136;2023-06-24T00:51:34;7.05;;;5.10;;
12567;SDS011;6349;50.904;6.136;2023-06-24T00:53:36;4.35;;;4.03;;
12567;SDS011;6349;50.904;6.136;2023-06-24T00:55:38;5.28;;;4.75;;
12567;SDS011;6349;50.904;6.136;2023-06-24T00:57:42;4.80;;;4.40;;
12567;SDS011;6349;50.904;6.136;2023-06-24T00:59:43;4.97;;;4.47;;
12567;SDS011;6349;50.904;6.136;2023-06-24T01:01:47;5.00;;;4.50;;
12567;SDS011;6349;50.904;6.136;2023-06-24T01:03:52;5.75;;;5.15;;
12567;SDS011;6349;50.904;6.136;2023-06-24T01:05:53;5.03;;;4.53;;
12567;SDS011;6349;50.904;6.136;2023-06-24T01:07:55;5.10;;;4.60;;
12567;SDS011;6349;50.904;6.136;2023-06-24T01:09:58;5.20;;;4.70;;
12567;SDS011;6349;50.904;6.136;2023-06-24T01:12:00;4.90;;;4.50;;
12567;SDS011;6349;50.904;6.136;2023-06-24T01:14:02;5.32;;;4.82;;
12567;SDS011;6349;50.904;6.136;2023-06-24T01:16:06;5.30;;;4.80;;
12567;SDS011;6349;50.904;6.136;2023-06-24T01:18:30;4.75;;;4.35;;
12567;SDS011;6349;50.904;6.136;2023-06-24T01:20:50;4.53;;;4.20;;
12567;SDS011;6349;50.904;6.136;2023-06-24T01:32:39;4.80;;;4.40;;
12567;SDS011;6349;50.904;6.136;2023-06-24T01:34:52;4.88;;;4.47;;
12567;SDS011;6349;50.904;6.136;2023-06-24T01:37:00;5.07;;;4.57;;
12567;SDS011;6349;50.904;6.136;2023-06-24T01:39:06;4.68;;;4.28;;
12567;SDS011;6349;50.904;6.136;2023-06-24T01:41:10;4.57;;;4.18;;
12567;SDS011;6349;50.904;6.136;2023-06-24T01:43:15;6.13;;;5.53;;
12567;SDS011;6349;50.904;6.136;2023-06-24T01:45:24;5.30;;;4.80;;
12567;SDS011;6349;50.904;6.136;2023-06-24T01:47:27;6.97;;;4.38;;
12567;SDS011;6349;50.904;6.136;2023-06-24T01:49:29;5.63;;;5.10;;
12567;SDS011;6349;50.904;6.136;2023-06-24T01:51:33;5.10;;;4.60;;
12567;SDS011;6349;50.904;6.136;2023-06-24T01:53:44;5.15;;;4.72;;
12567;SDS011;6349;50.904;6.136;2023-06-24T01:55:50;5.88;;;5.25;;
12567;SDS011;6349;50.904;6.136;2023-06-24T01:57:53;5.22;;;4.80;;
12567;SDS011;6349;50.904;6.136;2023-06-24T01:59:58;5.22;;;4.50;;
12567;SDS011;6349;50.904;6.136;2023-06-24T02:02:00;5.20;;;4.70;;
12567;SDS011;6349;50.904;6.136;2023-06-24T02:04:03;4.85;;;4.45;;
12567;SDS011;6349;50.904;6.136;2023-06-24T02:06:07;5.22;;;4.72;;
12567;SDS011;6349;50.904;6.136;2023-06-24T02:08:09;6.03;;;4.82;;
12567;SDS011;6349;50.904;6.136;2023-06-24T02:10:15;6.18;;;5.57;;
12567;SDS011;6349;50.904;6.136;2023-06-24T02:12:16;5.80;;;5.20;;
12567;SDS011;6349;50.904;6.136;2023-06-24T02:14:17;4.90;;;4.50;;
12567;SDS011;6349;50.904;6.136;2023-06-24T02:16:20;6.05;;;5.55;;
12567;SDS011;6349;50.904;6.136;2023-06-24T02:18:21;5.68;;;5.15;;
12567;SDS011;6349;50.904;6.136;2023-06-24T02:20:23;5.60;;;5.20;;
12567;SDS011;6349;50.904;6.136;2023-06-24T02:22:28;5.47;;;4.97;;
12567;SDS011;6349;50.904;6.136;2023-06-24T02:24:29;6.50;;;5.90;;
12567;SDS011;6349;50.904;6.136;2023-06-24T02:26:30;5.68;;;5.13;;
12567;SDS011;6349;50.904;6.136;2023-06-24T02:28:32;5.82;;;5.22;;
12567;SDS011;6349;50.904;6.136;2023-06-24T02:30:35;6.47;;;5.85;;
12567;SDS011;6349;50.904;6.136;2023-06-24T02:32:37;6.38;;;5.78;;
12567;SDS011;6349;50.904;6.136;2023-06-24T02:34:38;6.72;;;6.05;;
12567;SDS011;6349;50.904;6.136;2023-06-24T02:36:39;6.15;;;5.55;;
12567;SDS011;6349;50.904;6.136;2023-06-24T02:38:40;6.80;;;6.20;;
12567;SDS011;6349;50.904;6.136;2023-06-24T02:40:43;6.60;;;6.00;;
12567;SDS011;6349;50.904;6.136;2023-06-24T02:42:45;6.43;;;5.88;;
12567;SDS011;6349;50.904;6.136;2023-06-24T02:44:46;6.68;;;5.97;;
12567;SDS011;6349;50.904;6.136;2023-06-24T02:46:46;6.65;;;6.07;;
12567;SDS011;6349;50.904;6.136;2023-06-24T02:48:49;5.97;;;5.43;;
12567;SDS011;6349;50.904;6.136;2023-06-24T02:50:51;5.90;;;5.40;;
12567;SDS011;6349;50.904;6.136;2023-06-24T02:52:52;6.07;;;5.53;;
12567;SDS011;6349;50.904;6.136;2023-06-24T02:54:57;6.40;;;5.80;;
12567;SDS011;6349;50.904;6.136;2023-06-24T02:57:00;6.95;;;6.35;;
12567;SDS011;6349;50.904;6.136;2023-06-24T02:59:00;6.85;;;6.07;;
12567;SDS011;6349;50.904;6.136;2023-06-24T03:01:01;6.80;;;5.95;;
12567;SDS011;6349;50.904;6.136;2023-06-24T03:03:07;6.15;;;5.60;;
12567;SDS011;6349;50.904;6.136;2023-06-24T03:05:08;7.00;;;6.28;;
12567;SDS011;6349;50.904;6.136;2023-06-24T03:07:10;6.55;;;5.93;;
12567;SDS011;6349;50.904;6.136;2023-06-24T03:09:11;6.95;;;6.25;;
12567;SDS011;6349;50.904;6.136;2023-06-24T03:11:12;6.78;;;6.18;;
12567;SDS011;6349;50.904;6.136;2023-06-24T03:13:16;6.70;;;6.10;;
12567;SDS011;6349;50.904;6.136;2023-06-24T03:15:18;8.75;;;7.00;;
12567;SDS011;6349;50.904;6.136;2023-06-24T03:17:18;7.43;;;6.32;;
12567;SDS011;6349;50.904;6.136;2023-06-24T03:19:20;8.07;;;7.05;;
12567;SDS011;6349;50.904;6.136;2023-06-24T03:21:21;7.82;;;6.93;;
12567;SDS011;6349;50.904;6.136;2023-06-24T03:23:28;8.05;;;7.25;;
12567;SDS011;6349;50.904;6.136;2023-06-24T03:25:30;9.75;;;7.57;;
12567;SDS011;6349;50.904;6.136;2023-06-24T03:27:30;8.05;;;7.28;;
12567;SDS011;6349;50.904;6.136;2023-06-24T03:29:32;9.43;;;7.50;;
12567;SDS011;6349;50.904;6.136;2023-06-24T03:31:33;8.50;;;7.63;;
12567;SDS011;6349;50.904;6.136;2023-06-24T03:33:33;10.15;;;8.00;;
12567;SDS011;6349;50.904;6.136;2023-06-24T03:35:34;9.43;;;7.70;;
12567;SDS011;6349;50.904;6.136;2023-06-24T03:37:35;8.43;;;7.53;;
12567;SDS011;6349;50.904;6.136;2023-06-24T03:39:35;7.60;;;6.90;;
12567;SDS011;6349;50.904;6.136;2023-06-24T03:41:36;8.20;;;7.22;;
12567;SDS011;6349;50.904;6.136;2023-06-24T03:43:36;8.52;;;7.72;;
12567;SDS011;6349;50.904;6.136;2023-06-24T03:45:37;8.20;;;7.45;;
12567;SDS011;6349;50.904;6.136;2023-06-24T03:47:37;8.60;;;7.80;;
12567;SDS011;6349;50.904;6.136;2023-06-24T03:49:38;7.85;;;7.15;;
12567;SDS011;6349;50.904;6.136;2023-06-24T03:51:39;8.27;;;7.47;;
12567;SDS011;6349;50.904;6.136;2023-06-24T03:53:39;8.38;;;7.38;;
12567;SDS011;6349;50.904;6.136;2023-06-24T03:55:41;8.57;;;7.60;;
12567;SDS011;6349;50.904;6.136;2023-06-24T03:57:43;7.35;;;6.68;;
12567;SDS011;6349;50.904;6.136;2023-06-24T03:59:44;7.43;;;6.32;;
12567;SDS011;6349;50.904;6.136;2023-06-24T04:01:46;6.93;;;6.32;;
12567;SDS011;6349;50.904;6.136;2023-06-24T04:03:46;6.90;;;6.25;;
12567;SDS011;6349;50.904;6.136;2023-06-24T04:05:47;7.45;;;6.70;;
12567;SDS011;6349;50.904;6.136;2023-06-24T04:07:48;7.50;;;6.80;;
12567;SDS011;6349;50.904;6.136;2023-06-24T04:09:54;7.32;;;6.63;;
12567;SDS011;6349;50.904;6.136;2023-06-24T04:11:56;7.40;;;6.75;;
12567;SDS011;6349;50.904;6.136;2023-06-24T04:13:56;7.10;;;6.45;;
12567;SDS011;6349;50.904;6.136;2023-06-24T04:15:57;7.32;;;6.63;;
12567;SDS011;6349;50.904;6.136;2023-06-24T04:17:57;6.75;;;6.05;;
12567;SDS011;6349;50.904;6.136;2023-06-24T04:19:58;7.60;;;6.55;;
12567;SDS011;6349;50.904;6.136;2023-06-24T04:21:58;7.63;;;6.93;;
12567;SDS011;6349;50.904;6.136;2023-06-24T04:24:00;7.40;;;6.70;;
12567;SDS011;6349;50.904;6.136;2023-06-24T04:26:02;7.50;;;6.75;;
12567;SDS011;6349;50.904;6.136;2023-06-24T04:28:03;7.50;;;6.80;;
12567;SDS011;6349;50.904;6.136;2023-06-24T04:30:06;7.63;;;6.85;;
12567;SDS011;6349;50.904;6.136;2023-06-24T04:32:08;7.88;;;6.90;;
12567;SDS011;6349;50.904;6.136;2023-06-24T04:34:09;7.80;;;7.00;;
12567;SDS011;6349;50.904;6.136;2023-06-24T04:36:11;8.43;;;7.05;;
12567;SDS011;6349;50.904;6.136;2023-06-24T04:38:13;10.82;;;7.22;;
12567;SDS011;6349;50.904;6.136;2023-06-24T04:40:19;8.05;;;6.03;;
12567;SDS011;6349;50.904;6.136;2023-06-24T04:42:19;9.32;;;7.60;;
12567;SDS011;6349;50.904;6.136;2023-06-24T04:44:20;7.70;;;6.70;;
12567;SDS011;6349;50.904;6.136;2023-06-24T04:46:21;8.15;;;6.65;;
12567;SDS011;6349;50.904;6.136;2023-06-24T04:48:22;6.93;;;6.22;;
12567;SDS011;6349;50.904;6.136;2023-06-24T04:50:24;7.70;;;7.00;;
12567;SDS011;6349;50.904;6.136;2023-06-24T04:52:25;8.27;;;7.47;;
12567;SDS011;6349;50.904;6.136;2023-06-24T04:54:27;7.72;;;7.00;;
12567;SDS011;6349;50.904;6.136;2023-06-24T04:56:27;8.48;;;7.32;;
12567;SDS011;6349;50.904;6.136;2023-06-24T04:58:28;10.30;;;8.00;;
12567;SDS011;6349;50.904;6.136;2023-06-24T05:00:30;8.82;;;7.90;;
12567;SDS011;6349;50.904;6.136;2023-06-24T05:02:30;7.90;;;7.20;;
12567;SDS011;6349;50.904;6.136;2023-06-24T05:04:32;7.90;;;7.10;;
12567;SDS011;6349;50.904;6.136;2023-06-24T05:06:32;8.23;;;7.43;;
12567;SDS011;6349;50.904;6.136;2023-06-24T05:08:33;7.88;;;7.13;;
12567;SDS011;6349;50.904;6.136;2023-06-24T05:10:35;9.88;;;7.97;;
12567;SDS011;6349;50.904;6.136;2023-06-24T05:12:35;9.05;;;7.22;;
12567;SDS011;6349;50.904;6.136;2023-06-24T05:14:36;8.70;;;7.90;;
12567;SDS011;6349;50.904;6.136;2023-06-24T05:16:37;8.73;;;7.20;;
12567;SDS011;6349;50.904;6.136;2023-06-24T05:18:37;8.30;;;7.50;;
12567;SDS011;6349;50.904;6.136;2023-06-24T05:20:39;9.32;;;8.43;;
12567;SDS011;6349;50.904;6.136;2023-06-24T05:22:40;9.40;;;8.48;;
12567;SDS011;6349;50.904;6.136;2023-06-24T05:24:40;9.25;;;8.30;;
12567;SDS011;6349;50.904;6.136;2023-06-24T05:26:41;9.00;;;8.07;;
12567;SDS011;6349;50.904;6.136;2023-06-24T05:28:43;9.82;;;8.20;;
12567;SDS011;6349;50.904;6.136;2023-06-24T05:30:47;9.00;;;8.05;;
12567;SDS011;6349;50.904;6.136;2023-06-24T05:32:47;10.15;;;8.23;;
12567;SDS011;6349;50.904;6.136;2023-06-24T05:34:48;9.38;;;8.48;;
12567;SDS011;6349;50.904;6.136;2023-06-24T05:36:48;8.38;;;7.57;;
12567;SDS011;6349;50.904;6.136;2023-06-24T05:38:49;7.97;;;7.10;;
12567;SDS011;6349;50.904;6.136;2023-06-24T05:40:52;9.10;;;7.97;;
12567;SDS011;6349;50.904;6.136;2023-06-24T05:42:52;9.00;;;8.13;;
12567;SDS011;6349;50.904;6.136;2023-06-24T05:44:54;9.65;;;8.38;;
12567;SDS011;6349;50.904;6.136;2023-06-24T05:46:54;8.73;;;7.93;;
12567;SDS011;6349;50.904;6.136;2023-06-24T05:48:55;8.95;;;8.10;;
12567;SDS011;6349;50.904;6.136;2023-06-24T05:50:55;10.27;;;9.10;;
12567;SDS011;6349;50.904;6.136;2023-06-24T05:52:57;10.73;;;8.70;;
12567;SDS011;6349;50.904;6.136;2023-06-24T05:54:59;11.13;;;9.10;;
12567;SDS011;6349;50.904;6.136;2023-06-24T05:56:59;9.40;;;8.43;;
12567;SDS011;6349;50.904;6.136;2023-06-24T05:59:01;9.48;;;8.30;;
12567;SDS011;6349;50.904;6.136;2023-06-24T06:01:02;13.48;;;9.45;;
12567;SDS011;6349;50.904;6.136;2023-06-24T06:03:03;10.75;;;8.88;;
12567;SDS011;6349;50.904;6.136;2023-06-24T06:05:05;10.20;;;9.20;;
12567;SDS011;6349;50.904;6.136;2023-06-24T06:07:06;10.90;;;8.55;;
12567;SDS011;6349;50.904;6.136;2023-06-24T06:09:08;9.57;;;8.68;;
12567;SDS011;6349;50.904;6.136;2023-06-24T06:11:08;9.50;;;8.38;;
12567;SDS011;6349;50.904;6.136;2023-06-24T06:13:09;9.27;;;8.25;;
12567;SDS011;6349;50.904;6.136;2023-06-24T06:15:09;9.77;;;8.10;;
12567;SDS011;6349;50.904;6.136;2023-06-24T06:17:12;9.70;;;8.43;;
12567;SDS011;6349;50.904;6.136;2023-06-24T06:19:13;9.43;;;8.52;;
12567;SDS011;6349;50.904;6.136;2023-06-24T06:21:14;9.63;;;8.63;;
12567;SDS011;6349;50.904;6.136;2023-06-24T06:23:15;9.93;;;9.02;;
12567;SDS011;6349;50.904;6.136;2023-06-24T06:25:17;9.80;;;8.90;;
12567;SDS011;6349;50.904;6.136;2023-06-24T06:27:19;10.02;;;8.88;;
12567;SDS011;6349;50.904;6.136;2023-06-24T06:29:19;9.45;;;8.45;;
12567;SDS011;6349;50.904;6.136;2023-06-24T06:31:20;10.88;;;9.82;;
12567;SDS011;6349;50.904;6.136;2023-06-24T06:33:21;10.55;;;9.55;;
12567;SDS011;6349;50.904;6.136;2023-06-24T06:35:21;11.35;;;10.20;;
12567;SDS011;6349;50.904;6.136;2023-06-24T06:37:22;10.85;;;9.68;;
12567;SDS011;6349;50.904;6.136;2023-06-24T06:39:24;10.32;;;9.43;;
12567;SDS011;6349;50.904;6.136;2023-06-24T06:41:24;9.55;;;8.75;;
12567;SDS011;6349;50.904;6.136;2023-06-24T06:43:25;10.70;;;9.60;;
12567;SDS011;6349;50.904;6.136;2023-06-24T06:45:26;9.95;;;9.02;;
12567;SDS011;6349;50.904;6.136;2023-06-24T06:47:26;8.98;;;8.05;;
12567;SDS011;6349;50.904;6.136;2023-06-24T06:49:27;9.20;;;8.30;;
12567;SDS011;6349;50.904;6.136;2023-06-24T06:51:29;9.38;;;8.52;;
12567;SDS011;6349;50.904;6.136;2023-06-24T06:53:30;9.77;;;8.80;;
12567;SDS011;6349;50.904;6.136;2023-06-24T06:55:32;9.57;;;8.68;;
12567;SDS011;6349;50.904;6.136;2023-06-24T06:57:34;9.02;;;8.10;;
12567;SDS011;6349;50.904;6.136;2023-06-24T06:59:36;9.40;;;8.18;;
12567;SDS011;6349;50.904;6.136;2023-06-24T07:01:38;8.57;;;7.63;;
12567;SDS011;6349;50.904;6.136;2023-06-24T07:03:40;8.88;;;7.93;;
12567;SDS011;6349;50.904;6.136;2023-06-24T07:05:42;9.27;;;8.48;;
12567;SDS011;6349;50.904;6.136;2023-06-24T07:07:44;9.48;;;8.57;;
12567;SDS011;6349;50.904;6.136;2023-06-24T07:09:46;9.38;;;8.45;;
12567;SDS011;6349;50.904;6.136;2023-06-24T07:11:50;8.57;;;7.85;;
12567;SDS011;6349;50.904;6.136;2023-06-24T07:13:53;7.95;;;7.22;;
12567;SDS011;6349;50.904;6.136;2023-06-24T07:15:55;8.63;;;7.72;;
12567;SDS011;6349;50.904;6.136;2023-06-24T07:17:57;8.23;;;7.53;;
12567;SDS011;6349;50.904;6.136;2023-06-24T07:19:58;10.65;;;8.63;;
12567;SDS011;6349;50.904;6.136;2023-06-24T07:21:59;9.82;;;8.93;;
12567;SDS011;6349;50.904;6.136;2023-06-24T07:24:01;9.68;;;8.52;;
12567;SDS011;6349;50.904;6.136;2023-06-24T07:26:03;10.27;;;9.02;;
12567;SDS011;6349;50.904;6.136;2023-06-24T07:28:06;9.52;;;8.52;;
12567;SDS011;6349;50.904;6.136;2023-06-24T07:30:08;8.60;;;7.80;;
12567;SDS011;6349;50.904;6.136;2023-06-24T07:32:10;9.63;;;8.52;;
12567;SDS011;6349;50.904;6.136;2023-06-24T07:34:12;7.97;;;7.18;;
12567;SDS011;6349;50.904;6.136;2023-06-24T07:36:14;9.02;;;8.13;;
12567;SDS011;6349;50.904;6.136;2023-06-24T07:38:15;8.88;;;7.93;;
12567;SDS011;6349;50.904;6.136;2023-06-24T07:40:17;8.52;;;7.70;;
12567;SDS011;6349;50.904;6.136;2023-06-24T07:42:19;8.00;;;7.22;;
12567;SDS011;6349;50.904;6.136;2023-06-24T07:44:19;9.98;;;8.88;;
12567;SDS011;6349;50.904;6.136;2023-06-24T07:46:22;9.02;;;8.13;;
12567;SDS011;6349;50.904;6.136;2023-06-24T07:48:24;8.50;;;7.70;;
12567;SDS011;6349;50.904;6.136;2023-06-24T07:50:26;9.68;;;8.00;;
12567;SDS011;6349;50.904;6.136;2023-06-24T07:52:27;11.50;;;8.07;;
12567;SDS011;6349;50.904;6.136;2023-06-24T07:54:28;9.18;;;8.18;;
12567;SDS011;6349;50.904;6.136;2023-06-24T07:56:31;8.60;;;7.40;;
12567;SDS011;6349;50.904;6.136;2023-06-24T07:58:33;8.43;;;7.53;;
12567;SDS011;6349;50.904;6.136;2023-06-24T08:00:36;8.95;;;7.53;;
12567;SDS011;6349;50.904;6.136;2023-06-24T08:02:37;8.52;;;7.65;;
12567;SDS011;6349;50.904;6.136;2023-06-24T08:04:39;9.65;;;7.97;;
12567;SDS011;6349;50.904;6.136;2023-06-24T08:06:41;9.48;;;8.40;;
12567;SDS011;6349;50.904;6.136;2023-06-24T08:08:43;10.23;;;8.90;;
12567;SDS011;6349;50.904;6.136;2023-06-24T08:10:47;9.43;;;8.52;;
12567;SDS011;6349;50.904;6.136;2023-06-24T08:12:49;8.65;;;7.82;;
12567;SDS011;6349;50.904;6.136;2023-06-24T08:14:51;9.75;;;8.75;;
12567;SDS011;6349;50.904;6.136;2023-06-24T08:16:53;10.82;;;8.05;;
12567;SDS011;6349;50.904;6.136;2023-06-24T08:18:55;9.13;;;8.23;;
12567;SDS011;6349;50.904;6.136;2023-06-24T08:20:56;11.23;;;9.07;;
12567;SDS011;6349;50.904;6.136;2023-06-24T08:22:58;9.23;;;8.30;;
12567;SDS011;6349;50.904;6.136;2023-06-24T08:25:00;9.38;;;8.38;;
12567;SDS011;6349;50.904;6.136;2023-06-24T08:27:01;11.90;;;8.20;;
12567;SDS011;6349;50.904;6.136;2023-06-24T08:29:03;12.93;;;8.95;;
12567;SDS011;6349;50.904;6.136;2023-06-24T08:31:05;9.48;;;8.52;;
12567;SDS011;6349;50.904;6.136;2023-06-24T08:33:07;9.20;;;8.30;;
12567;SDS011;6349;50.904;6.136;2023-06-24T08:35:09;9.30;;;8.40;;
12567;SDS011;6349;50.904;6.136;2023-06-24T08:37:11;8.20;;;7.30;;
12567;SDS011;6349;50.904;6.136;2023-06-24T08:39:11;10.00;;;8.98;;
12567;SDS011;6349;50.904;6.136;2023-06-24T08:41:13;9.90;;;8.73;;
12567;SDS011;6349;50.904;6.136;2023-06-24T08:43:14;9.93;;;7.55;;
12567;SDS011;6349;50.904;6.136;2023-06-24T08:45:16;8.88;;;7.45;;
12567;SDS011;6349;50.904;6.136;2023-06-24T08:47:18;8.20;;;7.40;;
12567;SDS011;6349;50.904;6.136;2023-06-24T08:49:28;7.82;;;7.03;;
12567;SDS011;6349;50.904;6.136;2023-06-24T08:51:33;8.68;;;7.00;;
12567;SDS011;6349;50.904;6.136;2023-06-24T08:53:42;7.53;;;6.43;;
12567;SDS011;6349;50.904;6.136;2023-06-24T08:55:45;7.38;;;6.78;;
12567;SDS011;6349;50.904;6.136;2023-06-24T08:57:46;8.40;;;7.05;;
12567;SDS011;6349;50.904;6.136;2023-06-24T08:59:48;8.35;;;6.63;;
12567;SDS011;6349;50.904;6.136;2023-06-24T09:01:51;10.10;;;5.88;;
12567;SDS011;6349;50.904;6.136;2023-06-24T09:03:52;7.07;;;5.40;;
12567;SDS011;6349;50.904;6.136;2023-06-24T09:05:54;4.65;;;4.15;;
12567;SDS011;6349;50.904;6.136;2023-06-24T09:07:56;5.47;;;3.70;;
12567;SDS011;6349;50.904;6.136;2023-06-24T09:09:59;4.78;;;3.83;;
12567;SDS011;6349;50.904;6.136;2023-06-24T09:12:05;4.15;;;3.75;;
12567;SDS011;6349;50.904;6.136;2023-06-24T09:14:12;4.28;;;3.70;;
12567;SDS011;6349;50.904;6.136;2023-06-24T09:16:14;3.97;;;3.30;;
12567;SDS011;6349;50.904;6.136;2023-06-24T09:18:17;5.63;;;3.58;;
12567;SDS011;6349;50.904;6.136;2023-06-24T09:20:19;4.80;;;3.55;;
12567;SDS011;6349;50.904;6.136;2023-06-24T09:22:23;4.53;;;3.85;;
12567;SDS011;6349;50.904;6.136;2023-06-24T09:24:37;4.45;;;3.22;;
12567;SDS011;6349;50.904;6.136;2023-06-24T09:26:37;3.30;;;3.00;;
12567;SDS011;6349;50.904;6.136;2023-06-24T09:28:38;4.03;;;3.63;;
12567;SDS011;6349;50.904;6.136;2023-06-24T09:30:38;3.47;;;3.13;;
12567;SDS011;6349;50.904;6.136;2023-06-24T09:32:39;3.45;;;3.00;;
12567;SDS011;6349;50.904;6.136;2023-06-24T09:34:44;3.75;;;2.83;;
12567;SDS011;6349;50.904;6.136;2023-06-24T09:36:56;3.17;;;2.80;;
12567;SDS011;6349;50.904;6.136;2023-06-24T09:39:07;3.30;;;3.00;;
12567;SDS011;6349;50.904;6.136;2023-06-24T09:41:08;3.30;;;3.00;;
12567;SDS011;6349;50.904;6.136;2023-06-24T09:43:09;3.55;;;3.00;;
12567;SDS011;6349;50.904;6.136;2023-06-24T09:45:25;3.20;;;2.90;;
12567;SDS011;6349;50.904;6.136;2023-06-24T09:47:30;3.05;;;2.75;;
12567;SDS011;6349;50.904;6.136;2023-06-24T09:49:32;3.45;;;2.83;;
12567;SDS011;6349;50.904;6.136;2023-06-24T09:51:44;3.53;;;2.88;;
12567;SDS011;6349;50.904;6.136;2023-06-24T09:53:48;3.22;;;2.92;;
12567;SDS011;6349;50.904;6.136;2023-06-24T09:55:54;4.03;;;2.90;;
12567;SDS011;6349;50.904;6.136;2023-06-24T09:57:58;3.33;;;3.00;;
12567;SDS011;6349;50.904;6.136;2023-06-24T10:00:00;3.63;;;2.95;;
12567;SDS011;6349;50.904;6.136;2023-06-24T10:02:03;2.97;;;2.58;;
12567;SDS011;6349;50.904;6.136;2023-06-24T10:04:09;3.05;;;2.55;;
12567;SDS011;6349;50.904;6.136;2023-06-24T10:06:17;3.22;;;2.60;;
12567;SDS011;6349;50.904;6.136;2023-06-24T10:08:20;2.85;;;2.65;;
12567;SDS011;6349;50.904;6.136;2023-06-24T10:10:22;2.80;;;2.60;;
12567;SDS011;6349;50.904;6.136;2023-06-24T10:12:25;3.08;;;2.78;;
12567;SDS011;6349;50.904;6.136;2023-06-24T10:14:28;9.60;;;3.25;;
12567;SDS011;6349;50.904;6.136;2023-06-24T10:16:31;4.35;;;2.88;;
12567;SDS011;6349;50.904;6.136;2023-06-24T10:18:37;3.03;;;2.83;;
12567;SDS011;6349;50.904;6.136;2023-06-24T10:20:40;5.40;;;2.80;;
12567;SDS011;6349;50.904;6.136;2023-06-24T10:22:45;3.03;;;2.80;;
12567;SDS011;6349;50.904;6.136;2023-06-24T10:25:07;2.97;;;2.70;;
12567;SDS011;6349;50.904;6.136;2023-06-24T10:27:13;3.55;;;2.60;;
12567;SDS011;6349;50.904;6.136;2023-06-24T10:29:17;3.72;;;2.95;;
12567;SDS011;6349;50.904;6.136;2023-06-24T10:31:44;3.65;;;2.83;;
12567;SDS011;6349;50.904;6.136;2023-06-24T10:33:54;3.17;;;2.90;;
12567;SDS011;6349;50.904;6.136;2023-06-24T10:36:00;3.17;;;2.60;;
12567;SDS011;6349;50.904;6.136;2023-06-24T10:38:01;2.92;;;2.72;;
12567;SDS011;6349;50.904;6.136;2023-06-24T10:40:04;3.70;;;3.10;;
12567;SDS011;6349;50.904;6.136;2023-06-24T10:44:44;2.30;;;2.03;;
12567;SDS011;6349;50.904;6.136;2023-06-24T10:46:56;2.83;;;2.15;;
12567;SDS011;6349;50.904;6.136;2023-06-24T10:48:57;3.83;;;2.25;;
12567;SDS011;6349;50.904;6.136;2023-06-24T10:50:57;2.83;;;2.47;;
12567;SDS011;6349;50.904;6.136;2023-06-24T10:52:58;2.58;;;2.38;;
12567;SDS011;6349;50.904;6.136;2023-06-24T10:55:02;2.72;;;2.50;;
12567;SDS011;6349;50.904;6.136;2023-06-24T10:57:05;3.58;;;2.28;;
12567;SDS011;6349;50.904;6.136;2023-06-24T10:59:06;2.40;;;2.20;;
12567;SDS011;6349;50.904;6.136;2023-06-24T11:01:08;2.30;;;2.00;;
12567;SDS011;6349;50.904;6.136;2023-06-24T11:03:12;2.50;;;2.30;;
12567;SDS011;6349;50.904;6.136;2023-06-24T11:05:16;2.42;;;2.20;;
12567;SDS011;6349;50.904;6.136;2023-06-24T11:07:18;2.22;;;2.05;;
12567;SDS011;6349;50.904;6.136;2023-06-24T11:09:21;2.15;;;1.80;;
12567;SDS011;6349;50.904;6.136;2023-06-24T11:11:24;1.90;;;1.80;;
12567;SDS011;6349;50.904;6.136;2023-06-24T11:13:25;2.03;;;1.85;;
12567;SDS011;6349;50.904;6.136;2023-06-24T11:15:26;4.55;;;3.03;;
12567;SDS011;6349;50.904;6.136;2023-06-24T11:17:27;6.82;;;3.65;;
12567;SDS011;6349;50.904;6.136;2023-06-24T11:19:32;3.17;;;2.47;;
12567;SDS011;6349;50.904;6.136;2023-06-24T11:21:33;3.63;;;2.50;;
12567;SDS011;6349;50.904;6.136;2023-06-24T11:23:36;20.38;;;9.88;;
12567;SDS011;6349;50.904;6.136;2023-06-24T11:25:41;14.80;;;9.15;;
12567;SDS011;6349;50.904;6.136;2023-06-24T11:27:42;27.48;;;11.95;;
12567;SDS011;6349;50.904;6.136;2023-06-24T11:29:44;14.40;;;6.38;;
12567;SDS011;6349;50.904;6.136;2023-06-24T11:31:46;9.02;;;4.88;;
12567;SDS011;6349;50.904;6.136;2023-06-24T11:33:50;4.32;;;3.08;;
12567;SDS011;6349;50.904;6.136;2023-06-24T11:35:50;3.53;;;2.67;;
12567;SDS011;6349;50.904;6.136;2023-06-24T11:37:51;2.50;;;2.30;;
12567;SDS011;6349;50.904;6.136;2023-06-24T11:40:05;2.50;;;2.22;;
12567;SDS011;6349;50.904;6.136;2023-06-24T11:42:07;2.85;;;2.10;;
12567;SDS011;6349;50.904;6.136;2023-06-24T11:44:10;2.15;;;1.95;;
12567;SDS011;6349;50.904;6.136;2023-06-24T11:46:20;2.20;;;2.00;;
12567;SDS011;6349;50.904;6.136;2023-06-24T11:48:21;3.63;;;2.10;;
12567;SDS011;6349;50.904;6.136;2023-06-24T11:50:26;2.03;;;1.92;;
12567;SDS011;6349;50.904;6.136;2023-06-24T11:54:51;1.98;;;1.88;;
12567;SDS011;6349;50.904;6.136;2023-06-24T11:56:51;1.80;;;1.70;;
12567;SDS011;6349;50.904;6.136;2023-06-24T11:58:54;1.98;;;1.77;;
12567;SDS011;6349;50.904;6.136;2023-06-24T12:00:55;3.35;;;2.10;;
12567;SDS011;6349;50.904;6.136;2023-06-24T12:02:58;2.40;;;2.20;;
12567;SDS011;6349;50.904;6.136;2023-06-24T12:05:08;1.77;;;1.67;;
12567;SDS011;6349;50.904;6.136;2023-06-24T12:07:10;2.00;;;1.90;;
12567;SDS011;6349;50.904;6.136;2023-06-24T12:09:12;2.20;;;2.00;;
12567;SDS011;6349;50.904;6.136;2023-06-24T12:11:14;2.25;;;2.05;;
12567;SDS011;6349;50.904;6.136;2023-06-24T12:13:15;1.90;;;1.73;;
12567;SDS011;6349;50.904;6.136;2023-06-24T12:15:18;3.63;;;2.00;;
12567;SDS011;6349;50.904;6.136;2023-06-24T12:17:20;2.10;;;1.90;;
12567;SDS011;6349;50.904;6.136;2023-06-24T12:19:21;2.58;;;1.70;;
12567;SDS011;6349;50.904;6.136;2023-06-24T12:21:23;2.38;;;2.08;;
12567;SDS011;6349;50.904;6.136;2023-06-24T12:23:24;1.80;;;1.70;;
12567;SDS011;6349;50.904;6.136;2023-06-24T12:25:25;1.80;;;1.70;;
12567;SDS011;6349;50.904;6.136;2023-06-24T12:27:28;1.95;;;1.77;;
12567;SDS011;6349;50.904;6.136;2023-06-24T12:29:30;1.60;;;1.50;;
12567;SDS011;6349;50.904;6.136;2023-06-24T12:31:32;1.70;;;1.60;;
12567;SDS011;6349;50.904;6.136;2023-06-24T12:33:34;2.00;;;1.80;;
12567;SDS011;6349;50.904;6.136;2023-06-24T12:35:36;2.00;;;1.77;;
12567;SDS011;6349;50.904;6.136;2023-06-24T12:37:36;2.15;;;1.95;;
12567;SDS011;6349;50.904;6.136;2023-06-24T12:39:38;1.67;;;1.58;;
12567;SDS011;6349;50.904;6.136;2023-06-24T12:41:40;2.13;;;1.70;;
12567;SDS011;6349;50.904;6.136;2023-06-24T12:43:41;1.95;;;1.85;;